createdAt,value
2023-05-09T00:00:16.433Z,495.541902
2023-05-09T00:05:16.665Z,393.651112
2023-05-09T00:10:16.395Z,435.431426
2023-05-09T00:15:16.773Z,434.075261
2023-05-09T00:20:16.184Z,414.260861
2023-05-09T00:25:16.438Z,388.039214
2023-05-09T00:30:16.293Z,379.282349
2023-05-09T00:35:16.726Z,375.383286
2023-05-09T00:40:16.784Z,363.252864
2023-05-09T00:45:16.021Z,351.992273
2023-05-09T00:50:15.956Z,233.557961
2023-05-09T00:55:16.191Z,206.063170
2023-05-09T01:00:16.051Z,313.708840
2023-05-09T01:05:17.197Z,286.522666
2023-05-09T01:10:16.026Z,303.371588
2023-05-09T01:15:16.093Z,215.513876
2023-05-09T01:20:16.466Z,147.998066
2023-05-09T01:25:16.014Z,226.421327
2023-05-09T01:30:16.072Z,227.461204
2023-05-09T01:35:16.272Z,212.797387
2023-05-09T01:40:16.673Z,202.548313
2023-05-09T01:45:16.635Z,189.729326
2023-05-09T01:50:16.266Z,175.158514
2023-05-09T01:55:16.126Z,160.782189
2023-05-09T02:00:16.151Z,147.120724
2023-05-09T02:05:16.046Z,132.295512
2023-05-09T02:10:16.312Z,118.129951
2023-05-09T02:15:16.571Z,106.307070
2023-05-09T02:20:16.120Z,97.608261
2023-05-09T02:25:16.130Z,86.543368
2023-05-09T02:30:15.813Z,76.283304
2023-05-09T02:35:15.836Z,57.281253
2023-05-09T02:40:16.645Z,37.511733
2023-05-09T02:45:16.320Z,32.938070
2023-05-09T02:50:16.021Z,28.725406
2023-05-09T02:55:16.251Z,25.322811
2023-05-09T03:00:16.112Z,21.238868
2023-05-09T03:05:15.905Z,17.379029
2023-05-09T03:10:16.068Z,14.259439
2023-05-09T03:15:16.384Z,10.121385
2023-05-09T03:20:16.393Z,6.232954
2023-05-09T03:25:16.333Z,3.121647
2023-05-09T03:30:16.248Z,0.990263
2023-05-09T03:35:17.179Z,0.194839
2023-05-09T03:40:15.817Z,0.004605
2023-05-09T03:45:17.119Z,0.000000
2023-05-09T03:50:16.130Z,0.000000
2023-05-09T03:55:16.181Z,0.000000
2023-05-09T04:00:16.696Z,0.000000
2023-05-09T04:05:17.066Z,0.000000
2023-05-09T04:10:15.792Z,0.000000
2023-05-09T04:15:16.424Z,0.000000
2023-05-09T04:20:17.045Z,0.000000
2023-05-09T04:25:17.619Z,0.000000
2023-05-09T04:30:17.284Z,0.000000
2023-05-09T04:35:19.679Z,0.000000
2023-05-09T04:40:16.172Z,0.000000
2023-05-09T04:45:16.299Z,0.000000
2023-05-09T04:50:16.310Z,0.000000
2023-05-09T04:55:16.538Z,0.000000
2023-05-09T05:00:16.035Z,0.000000
2023-05-09T05:05:15.778Z,0.000000
2023-05-09T05:10:15.914Z,0.000000
2023-05-09T05:15:16.325Z,0.000000
2023-05-09T05:20:15.944Z,0.000000
2023-05-09T05:25:16.756Z,0.000000
2023-05-09T05:30:15.974Z,0.000000
2023-05-09T05:35:16.957Z,0.000000
2023-05-09T05:40:17.233Z,0.000000
2023-05-09T05:45:17.026Z,0.000000
2023-05-09T05:50:16.402Z,0.000000
2023-05-09T05:55:16.313Z,0.000000
2023-05-09T06:00:15.859Z,0.000000
2023-05-09T06:05:16.117Z,0.000000
2023-05-09T06:10:15.966Z,0.000000
2023-05-09T06:15:16.094Z,0.000000
2023-05-09T06:20:17.408Z,0.000000
2023-05-09T06:25:16.313Z,0.000000
2023-05-09T06:30:25.850Z,0.000000
2023-05-09T06:35:15.868Z,0.000000
2023-05-09T06:40:17.172Z,0.000000
2023-05-09T06:45:16.737Z,0.000000
2023-05-09T06:50:16.967Z,0.000000
2023-05-09T06:55:16.247Z,0.000000
2023-05-09T07:00:16.257Z,0.000000
2023-05-09T07:05:17.728Z,0.000000
2023-05-09T07:10:16.412Z,0.000000
2023-05-09T07:15:25.600Z,0.000000
2023-05-09T07:20:15.795Z,0.000000
2023-05-09T07:25:17.057Z,0.000000
2023-05-09T07:30:16.620Z,0.000000
2023-05-09T07:35:16.394Z,0.000000
2023-05-09T07:40:16.007Z,0.000000
2023-05-09T07:45:17.339Z,0.000000
2023-05-09T07:50:16.119Z,0.000000
2023-05-09T07:55:16.146Z,0.000000
2023-05-09T08:00:15.988Z,0.000000
2023-05-09T08:05:16.165Z,0.000000
2023-05-09T08:10:16.547Z,0.000000
2023-05-09T08:15:16.784Z,0.000000
2023-05-09T08:20:16.039Z,0.000000
2023-05-09T08:25:16.518Z,0.000000
2023-05-09T08:30:16.023Z,0.000000
2023-05-09T08:35:16.514Z,0.000000
2023-05-09T08:40:16.556Z,0.000000
2023-05-09T08:45:16.810Z,0.000000
2023-05-09T08:50:16.643Z,0.000000
2023-05-09T08:55:16.052Z,0.000000
2023-05-09T09:00:17.949Z,0.000000
2023-05-09T09:05:39.526Z,0.000000
2023-05-09T09:10:16.375Z,0.000000
2023-05-09T09:15:16.193Z,0.000000
2023-05-09T09:20:16.330Z,0.000000
2023-05-09T09:25:16.034Z,0.000000
2023-05-09T09:30:16.309Z,0.000000
2023-05-09T09:35:16.162Z,0.000000
2023-05-09T09:40:16.800Z,0.000000
2023-05-09T09:45:16.620Z,0.000000
2023-05-09T09:50:15.904Z,0.000000
2023-05-09T09:55:15.944Z,0.000000
2023-05-09T10:00:16.237Z,0.000000
2023-05-09T10:05:16.540Z,0.000000
2023-05-09T10:10:16.182Z,0.000000
2023-05-09T10:15:15.900Z,0.000000
2023-05-09T10:20:16.554Z,0.000000
2023-05-09T10:25:16.307Z,0.000000
2023-05-09T10:30:16.940Z,0.000000
2023-05-09T10:35:16.419Z,0.000000
2023-05-09T10:40:16.635Z,0.000000
2023-05-09T10:45:17.545Z,0.000000
2023-05-09T10:50:15.848Z,0.000000
2023-05-09T10:55:16.284Z,0.000000
2023-05-09T11:00:17.235Z,0.000000
2023-05-09T11:05:16.067Z,0.000000
2023-05-09T11:10:16.409Z,0.000000
2023-05-09T11:15:16.384Z,0.000000
2023-05-09T11:20:16.218Z,0.000000
2023-05-09T11:25:15.835Z,0.000000
2023-05-09T11:30:16.156Z,0.000000
2023-05-09T11:35:16.244Z,0.000000
2023-05-09T11:40:17.604Z,0.000000
2023-05-09T11:45:16.296Z,0.000000
2023-05-09T11:50:16.800Z,0.000000
2023-05-09T11:55:16.361Z,0.000000
2023-05-09T12:00:16.079Z,0.000000
2023-05-09T12:05:16.790Z,0.000000
2023-05-09T12:10:15.996Z,0.000000
2023-05-09T12:15:16.641Z,0.000000
2023-05-09T12:20:16.362Z,0.000000
2023-05-09T12:25:17.329Z,0.000000
2023-05-09T12:30:15.743Z,0.000000
2023-05-09T12:35:16.885Z,0.000000
2023-05-09T12:40:15.965Z,0.006811
2023-05-09T12:45:16.443Z,0.078566
2023-05-09T12:50:16.109Z,0.423244
2023-05-09T12:55:16.338Z,1.728277
2023-05-09T13:00:16.338Z,3.766477
2023-05-09T13:05:17.510Z,6.185238
2023-05-09T13:10:16.062Z,7.725640
2023-05-09T13:15:17.752Z,8.312663
2023-05-09T13:20:15.959Z,8.938305
2023-05-09T13:25:15.790Z,12.335975
2023-05-09T13:30:16.372Z,14.109407
2023-05-09T13:35:16.530Z,15.004895
2023-05-09T13:40:17.217Z,21.038939
2023-05-09T13:45:16.418Z,28.904533
2023-05-09T13:50:16.008Z,24.968895
2023-05-09T13:55:15.920Z,22.310616
2023-05-09T14:00:16.311Z,24.134276
2023-05-09T14:05:16.831Z,32.255379
2023-05-09T14:10:16.042Z,44.968081
2023-05-09T14:15:15.852Z,50.331798
2023-05-09T14:20:16.684Z,62.030330
2023-05-09T14:25:16.053Z,62.978353
2023-05-09T14:30:16.202Z,66.258824
2023-05-09T14:35:16.140Z,57.922424
2023-05-09T14:40:16.647Z,45.827118
2023-05-09T14:45:15.811Z,49.757251
2023-05-09T14:50:16.562Z,62.322527
2023-05-09T14:55:15.704Z,72.082968
2023-05-09T15:00:21.239Z,75.475152
2023-05-09T15:05:16.120Z,87.685056
2023-05-09T15:10:16.231Z,91.498972
2023-05-09T15:15:16.597Z,93.809959
2023-05-09T15:20:16.392Z,99.650742
2023-05-09T15:25:16.030Z,118.965371
2023-05-09T15:30:16.222Z,142.553840
2023-05-09T15:35:17.117Z,155.789671
2023-05-09T15:40:17.238Z,147.419696
2023-05-09T15:45:15.780Z,138.731665
2023-05-09T15:50:16.116Z,123.742796
2023-05-09T15:55:15.904Z,154.758692
2023-05-09T16:00:16.400Z,164.211920
2023-05-09T16:05:15.695Z,152.919405
2023-05-09T16:10:17.462Z,151.982895
2023-05-09T16:15:15.806Z,158.792024
2023-05-09T16:20:17.444Z,195.959952
2023-05-09T16:25:15.968Z,300.489821
2023-05-09T16:30:16.429Z,219.081121
2023-05-09T16:35:16.606Z,208.734928
2023-05-09T16:40:16.140Z,228.445971
2023-05-09T16:45:16.493Z,217.237440
2023-05-09T16:50:16.443Z,238.447094
2023-05-09T16:55:15.824Z,282.787901
2023-05-09T17:00:16.186Z,359.210864
2023-05-09T17:05:15.945Z,268.725001
2023-05-09T17:10:16.125Z,282.184838
2023-05-09T17:15:16.611Z,306.930091
2023-05-09T17:20:15.919Z,370.590490
2023-05-09T17:25:16.952Z,357.135874
2023-05-09T17:30:16.338Z,315.056969
2023-05-09T17:35:16.982Z,287.575804
2023-05-09T17:40:16.244Z,293.544966
2023-05-09T17:45:16.125Z,392.295015
2023-05-09T17:50:16.695Z,364.415901
2023-05-09T17:55:16.210Z,333.507472
2023-05-09T18:00:16.552Z,364.466996
2023-05-09T18:05:15.797Z,420.231111
2023-05-09T18:10:16.922Z,594.306145
2023-05-09T18:15:16.021Z,382.070016
2023-05-09T18:20:16.227Z,425.852406
2023-05-09T18:25:16.704Z,572.159759
2023-05-09T18:30:16.175Z,595.168601
2023-05-09T18:35:16.448Z,498.759500
2023-05-09T18:40:17.063Z,590.420921
2023-05-09T18:45:15.754Z,492.775239
2023-05-09T18:50:16.480Z,785.422691
2023-05-09T18:55:16.208Z,876.176178
2023-05-09T19:00:16.450Z,909.551901
2023-05-09T19:05:17.496Z,691.871018
2023-05-09T19:10:16.216Z,881.929694
2023-05-09T19:15:16.731Z,903.841087
2023-05-09T19:20:17.021Z,912.455149
2023-05-09T19:25:17.101Z,902.141620
2023-05-09T19:30:16.040Z,952.563492
2023-05-09T19:35:16.535Z,969.376385
2023-05-09T19:40:16.152Z,977.719592
2023-05-09T19:45:16.468Z,980.053137
2023-05-09T19:50:17.320Z,965.065053
2023-05-09T19:55:17.207Z,855.571799
2023-05-09T20:00:16.636Z,959.147860
2023-05-09T20:05:16.381Z,964.414052
2023-05-09T20:10:16.966Z,981.097565
2023-05-09T20:15:17.031Z,932.694186
2023-05-09T20:20:16.293Z,802.759989
2023-05-09T20:25:15.959Z,876.187414
2023-05-09T20:30:16.172Z,870.207200
2023-05-09T20:35:15.982Z,889.531593
2023-05-09T20:40:16.087Z,924.245946
2023-05-09T20:45:15.693Z,911.677600
2023-05-09T20:50:16.798Z,825.288854
2023-05-09T20:55:16.299Z,930.356021
2023-05-09T21:00:16.685Z,766.640158
2023-05-09T21:05:15.938Z,622.850754
2023-05-09T21:10:16.685Z,820.066279
2023-05-09T21:15:16.019Z,858.925726
2023-05-09T21:20:16.306Z,877.323826
2023-05-09T21:25:16.029Z,844.143303
2023-05-09T21:30:15.969Z,808.564888
2023-05-09T21:35:16.135Z,834.370845
2023-05-09T21:40:16.519Z,858.373999
2023-05-09T21:45:16.128Z,849.931082
2023-05-09T21:50:16.488Z,838.339897
2023-05-09T21:55:16.462Z,827.441500
2023-05-09T22:00:16.405Z,818.380866
2023-05-09T22:05:16.662Z,812.437334
2023-05-09T22:10:16.167Z,764.972438
2023-05-09T22:15:16.722Z,718.696646
2023-05-09T22:20:16.933Z,763.315502
2023-05-09T22:25:15.993Z,774.841320
2023-05-09T22:30:16.252Z,756.140353
2023-05-09T22:35:15.714Z,725.379083
2023-05-09T22:40:16.136Z,708.186107
2023-05-09T22:45:15.906Z,685.824946
2023-05-09T22:50:15.970Z,652.173232
2023-05-09T22:55:17.647Z,643.306442
2023-05-09T23:00:16.612Z,639.820801
2023-05-09T23:05:16.606Z,661.358539
2023-05-09T23:10:17.653Z,679.269121
2023-05-09T23:15:16.081Z,670.724479
2023-05-09T23:20:16.271Z,655.660585
2023-05-09T23:25:15.976Z,639.893000
2023-05-09T23:30:17.294Z,623.300206
2023-05-09T23:35:16.546Z,608.933255
2023-05-09T23:40:16.541Z,537.149333
2023-05-09T23:45:16.994Z,474.633916
2023-05-09T23:50:17.865Z,533.112195
2023-05-09T23:55:16.368Z,538.193067
